Time;durP1;ratioP1;P1;durP2;ratioP2;P2;SDS_P1;SDS_P2;PMS_P1;PMS_P2;Temp;Humidity;BMP_temperature;BMP_pressure;BME280_temperature;BME280_humidity;BME280_pressure;Samples;Min_cycle;Max_cycle;Signal;HPM_P1;HPM_P2
2022/12/13 00:01:59;;;;;;;10.57;4.88;;;;;;;6.85;68.47;99842.34;4995913;28;20159;-79
2022/12/13 00:04:28;;;;;;;8.80;4.95;;;;;;;6.84;68.51;99845.03;4978822;28;20448;-79
2022/12/13 00:06:56;;;;;;;9.25;5.05;;;;;;;6.83;68.35;99838.03;4996115;28;20066;-78
2022/12/13 00:09:25;;;;;;;10.25;4.72;;;;;;;6.82;68.33;99837.19;4995945;28;20066;-79
2022/12/13 00:11:53;;;;;;;10.07;5.07;;;;;;;6.81;68.30;99845.22;4978096;28;20497;-79
2022/12/13 00:14:23;;;;;;;11.07;4.88;;;;;;;6.81;68.50;99848.72;4978472;28;20046;-79
2022/12/13 00:16:51;;;;;;;8.40;4.70;;;;;;;6.81;68.47;99848.72;4996053;28;20448;-79
2022/12/13 00:19:20;;;;;;;8.65;4.63;;;;;;;6.79;68.28;99850.59;4995862;28;20060;-79
2022/12/13 00:21:48;;;;;;;8.27;5.13;;;;;;;6.79;68.24;99850.59;4995327;28;20138;-79
2022/12/13 00:24:16;;;;;;;9.52;4.68;;;;;;;6.79;68.21;99847.94;4995735;28;20046;-79
2022/12/13 00:26:44;;;;;;;9.05;4.72;;;;;;;6.78;68.13;99846.22;4995663;28;20038;-79
2022/12/13 00:29:12;;;;;;;9.55;5.15;;;;;;;6.79;68.22;99847.09;4995475;28;20052;-79
2022/12/13 00:31:42;;;;;;;8.82;4.45;;;;;;;6.78;68.09;99851.53;4996135;28;20051;-77
2022/12/13 00:34:26;;;;;;;8.32;4.50;;;;;;;6.77;68.06;99847.19;4995610;28;20050;-79
2022/12/13 00:36:55;;;;;;;8.77;4.85;;;;;;;6.78;68.27;99858.63;4995534;28;20047;-79
2022/12/13 00:39:23;;;;;;;9.10;5.00;;;;;;;6.77;68.35;99851.63;4995702;28;20060;-79
2022/12/13 00:41:51;;;;;;;7.97;4.78;;;;;;;6.76;68.22;99858.72;4977733;28;20481;-79
2022/12/13 00:44:19;;;;;;;7.50;4.55;;;;;;;6.75;68.20;99862.28;4995529;28;20058;-79
2022/12/13 00:46:50;;;;;;;8.27;4.80;;;;;;;6.75;68.20;99858.75;4977961;28;20077;-79
2022/12/13 00:49:18;;;;;;;9.18;4.90;;;;;;;6.73;68.13;99858.84;4977610;28;20046;-79
2022/12/13 00:51:48;;;;;;;8.07;4.47;;;;;;;6.74;68.19;99868.50;4995422;28;20101;-79
2022/12/13 00:54:17;;;;;;;8.55;4.63;;;;;;;6.75;67.95;99870.22;4994686;28;20061;-79
2022/12/13 00:56:45;;;;;;;9.20;4.65;;;;;;;6.74;67.89;99871.16;4995155;28;20070;-78
2022/12/13 00:59:14;;;;;;;7.65;4.50;;;;;;;6.72;67.95;99873.03;4995197;28;20141;-78
2022/12/13 01:01:42;;;;;;;8.77;4.72;;;;;;;6.72;67.85;99878.34;4977357;28;20570;-78
2022/12/13 01:04:13;;;;;;;7.20;4.47;;;;;;;6.71;67.62;99876.63;4995477;28;20046;-78
2022/12/13 01:06:43;;;;;;;9.43;5.10;;;;;;;6.70;67.81;99879.38;4995871;28;20069;-78
2022/12/13 01:09:17;;;;;;;8.57;5.05;;;;;;;6.71;67.77;99881.94;4995636;28;20054;-77
2022/12/13 01:11:46;;;;;;;8.15;4.70;;;;;;;6.71;67.80;99878.44;4983997;28;20118;-78
2022/12/13 01:14:15;;;;;;;7.88;4.75;;;;;;;6.65;67.65;99876.94;4975451;28;20085;-78
2022/12/13 01:16:43;;;;;;;7.60;4.85;;;;;;;6.70;67.66;99882.88;4975716;28;20050;-78
2022/12/13 01:19:12;;;;;;;9.27;5.07;;;;;;;6.69;67.74;99883.81;4958458;28;20078;-78
2022/12/13 01:21:40;;;;;;;8.57;5.15;;;;;;;6.68;67.69;99887.41;4975804;28;20053;-78
2022/12/13 01:24:09;;;;;;;7.65;4.78;;;;;;;6.68;67.76;99890.03;4975364;28;20490;-78
2022/12/13 01:26:37;;;;;;;7.57;4.25;;;;;;;6.68;67.80;99887.41;4958984;28;20134;-78
2022/12/13 01:29:05;;;;;;;8.05;4.85;;;;;;;6.66;67.76;99891.91;4975768;28;20053;-77
2022/12/13 01:31:33;;;;;;;7.88;4.70;;;;;;;6.65;67.57;99879.56;4975416;28;20055;-79
2022/12/13 01:34:09;;;;;;;7.63;4.70;;;;;;;6.65;67.63;99887.53;4975003;28;20051;-77
2022/12/13 01:36:39;;;;;;;8.00;5.13;;;;;;;6.65;67.65;99889.31;4975357;28;20038;-78
2022/12/13 01:39:08;;;;;;;8.15;4.97;;;;;;;6.65;67.50;99886.66;4975471;28;20045;-78
2022/12/13 01:41:44;;;;;;;7.40;4.57;;;;;;;6.63;67.60;99889.41;4975586;28;20054;-79
2022/12/13 01:44:49;;;;;;;8.75;5.15;;;;;;;6.64;67.52;99900.84;4976531;28;20053;-80
2022/12/13 01:47:20;;;;;;;8.65;4.68;;;;;;;6.62;67.54;99897.44;4979087;28;20556;-78
2022/12/13 01:49:50;;;;;;;8.10;4.53;;;;;;;6.60;67.74;99895.72;4979469;28;20039;-79
2022/12/13 01:52:21;;;;;;;8.35;4.68;;;;;;;6.60;67.68;99906.31;4979391;28;20054;-79
2022/12/13 01:54:52;;;;;;;8.68;4.72;;;;;;;6.59;67.41;99911.69;4979027;28;20430;-79
2022/12/13 01:57:22;;;;;;;9.20;4.50;;;;;;;6.58;67.51;99912.63;4979208;28;20058;-79
2022/12/13 01:59:53;;;;;;;8.88;5.50;;;;;;;6.58;67.30;99917.94;4978624;28;20043;-79
2022/12/13 02:02:22;;;;;;;7.72;4.90;;;;;;;6.57;67.39;99918.88;4961096;28;20054;-78
2022/12/13 02:04:55;;;;;;;8.88;5.43;;;;;;;6.55;67.34;99923.38;4978750;28;20126;-79
2022/12/13 02:07:31;;;;;;;7.53;5.00;;;;;;;6.55;67.22;99921.56;4978483;28;20054;-79
2022/12/13 02:10:02;;;;;;;8.70;5.53;;;;;;;6.55;67.24;99912.78;4978677;28;20509;-78
2022/12/13 02:12:33;;;;;;;8.63;5.60;;;;;;;6.53;67.34;99906.69;4961387;28;20050;-79
2022/12/13 02:15:04;;;;;;;8.25;4.82;;;;;;;6.52;67.34;99910.28;4979035;28;20105;-79
2022/12/13 02:17:47;;;;;;;8.13;5.10;;;;;;;6.51;67.18;99911.22;4978108;28;20046;-79
2022/12/13 02:20:42;;;;;;;7.95;5.20;;;;;;;6.51;67.07;99911.22;4978323;28;20121;-79
2022/12/13 02:23:40;;;;;;;9.27;5.80;;;;;;;6.50;67.09;99904.19;4978901;28;20093;-79
2022/12/13 02:26:40;;;;;;;7.95;5.00;;;;;;;6.49;66.95;99900.69;4979086;28;20090;-79
2022/12/13 02:29:38;;;;;;;7.82;4.68;;;;;;;6.48;67.21;99895.47;4978832;28;20557;-78
2022/12/13 02:32:16;;;;;;;8.07;4.63;;;;;;;6.47;67.00;99902.56;4978575;28;20487;-78
2022/12/13 02:34:54;;;;;;;7.63;4.78;;;;;;;6.48;67.16;99906.06;4978512;28;20490;-79
2022/12/13 02:37:26;;;;;;;8.05;5.22;;;;;;;6.47;67.21;99904.38;4961094;28;20051;-79
2022/12/13 02:40:00;;;;;;;7.65;4.90;;;;;;;6.45;66.99;99909.72;4977638;28;20047;-79
2022/12/13 02:42:34;;;;;;;8.98;5.22;;;;;;;6.46;67.14;99913.22;4978074;28;20548;-79
2022/12/13 02:45:07;;;;;;;8.77;5.60;;;;;;;6.44;67.01;99912.44;4978222;28;20081;-78
2022/12/13 02:47:39;;;;;;;8.73;5.40;;;;;;;6.43;67.07;99916.03;4978487;28;20154;-78
2022/12/13 02:50:12;;;;;;;7.95;5.15;;;;;;;6.44;67.22;99907.13;4977856;28;20078;-79
2022/12/13 02:52:45;;;;;;;8.43;5.20;;;;;;;6.43;67.13;99905.44;4978049;28;20050;-78
2022/12/13 02:55:16;;;;;;;7.45;4.70;;;;;;;6.43;67.30;99908.94;4977995;28;20094;-79
2022/12/13 02:57:47;;;;;;;8.77;5.50;;;;;;;6.42;67.08;99907.22;4977545;28;20047;-78
2022/12/13 03:00:19;;;;;;;7.38;4.60;;;;;;;6.41;67.07;99916.09;4977941;28;20055;-79
2022/12/13 03:03:10;;;;;;;8.90;5.10;;;;;;;6.41;67.04;99905.50;4977633;28;20074;-78
2022/12/13 03:08:54;;;;;;;8.23;4.88;;;;;;;6.41;67.03;99909.94;4902552;29;20049;-78
2022/12/13 03:14:19;;;;;;;8.02;4.95;;;;;;;6.40;67.24;99916.19;4977613;28;20050;-78
2022/12/13 03:16:51;;;;;;;8.33;5.03;;;;;;;6.39;67.21;99911.81;4977418;28;20047;-79
2022/12/13 03:19:21;;;;;;;6.05;4.15;;;;;;;6.39;66.89;99920.63;4978077;28;20055;-79
2022/12/13 03:21:49;;;;;;;8.32;4.90;;;;;;;6.40;67.13;99921.47;4977607;28;20133;-78
2022/12/13 03:24:20;;;;;;;7.53;4.95;;;;;;;6.40;67.09;99918.84;4976997;28;20042;-78
2022/12/13 03:26:49;;;;;;;8.68;5.30;;;;;;;6.39;67.00;99922.41;4977748;28;20070;-79
2022/12/13 03:29:19;;;;;;;7.85;5.00;;;;;;;6.39;67.02;99922.41;4960069;28;20398;-79
2022/12/13 03:31:51;;;;;;;7.22;4.75;;;;;;;6.38;66.99;99920.69;4977310;28;20050;-79
2022/12/13 03:34:22;;;;;;;8.70;5.30;;;;;;;6.37;66.84;99926.91;4959725;28;20054;-79
2022/12/13 03:36:51;;;;;;;8.75;5.15;;;;;;;6.36;66.91;99918.09;4977746;28;20398;-78
2022/12/13 03:39:20;;;;;;;8.48;5.10;;;;;;;6.36;66.91;99934.00;4976836;28;20039;-78
2022/12/13 03:41:49;;;;;;;7.78;5.05;;;;;;;6.35;67.12;99926.97;4977201;28;20081;-78
2022/12/13 03:44:17;;;;;;;8.13;5.00;;;;;;;6.36;66.94;99922.53;4977032;28;20474;-79
2022/12/13 03:46:45;;;;;;;8.25;5.55;;;;;;;6.35;66.71;99926.13;4976861;28;20050;-79
2022/12/13 03:49:14;;;;;;;9.15;5.30;;;;;;;6.35;66.69;99926.13;4976878;28;20050;-78
2022/12/13 03:51:46;;;;;;;8.07;5.05;;;;;;;6.35;66.72;99926.13;4977116;28;20050;-79
2022/12/13 03:54:15;;;;;;;8.13;4.95;;;;;;;6.35;66.87;99928.78;4977619;28;20054;-78
2022/12/13 03:56:43;;;;;;;7.68;4.47;;;;;;;6.32;66.84;99925.34;4977228;28;20405;-78
2022/12/13 03:59:11;;;;;;;7.70;4.75;;;;;;;6.32;66.81;99925.34;4959613;28;20051;-79
2022/12/13 04:01:39;;;;;;;8.30;5.35;;;;;;;6.32;66.87;99930.66;4977036;28;20050;-79
2022/12/13 04:04:07;;;;;;;8.52;4.55;;;;;;;6.34;66.96;99929.72;4977424;28;20050;-77
2022/12/13 04:06:35;;;;;;;7.05;4.13;;;;;;;6.29;67.05;99922.00;4977144;28;20049;-79
2022/12/13 04:09:05;;;;;;;7.50;4.63;;;;;;;6.34;67.00;99932.34;4976417;28;20054;-79
2022/12/13 04:14:19;;;;;;;7.53;4.60;;;;;;;6.34;67.21;99940.31;4976621;28;20051;-78
2022/12/13 04:17:09;;;;;;;8.25;4.88;;;;;;;6.35;67.22;99939.38;4977686;28;20062;-78
2022/12/13 04:19:37;;;;;;;7.22;4.40;;;;;;;6.32;67.09;99940.38;4976775;28;20053;-78
2022/12/13 04:22:06;;;;;;;7.95;4.82;;;;;;;6.33;67.17;99942.09;4977152;28;20058;-78
2022/12/13 04:24:36;;;;;;;7.97;5.05;;;;;;;6.28;67.38;99934.38;4977065;28;20478;-78
2022/12/13 04:27:04;;;;;;;7.70;4.70;;;;;;;6.32;67.06;99951.84;4977112;28;20042;-78
2022/12/13 04:29:33;;;;;;;9.07;5.30;;;;;;;6.32;67.06;99951.84;4976935;28;20043;-78
2022/12/13 04:32:02;;;;;;;7.15;4.50;;;;;;;6.32;67.11;99948.34;4976468;28;20474;-79
2022/12/13 04:34:31;;;;;;;7.85;5.18;;;;;;;6.32;67.04;99951.84;4976749;28;20051;-79
2022/12/13 04:37:04;;;;;;;8.20;5.25;;;;;;;6.30;66.92;99951.06;4977115;28;20043;-78
2022/12/13 04:39:32;;;;;;;7.55;4.88;;;;;;;6.32;67.17;99957.13;4976261;28;20122;-78
2022/12/13 04:42:04;;;;;;;7.68;4.78;;;;;;;6.31;66.82;99951.91;4976663;28;20069;-78
2022/12/13 04:44:32;;;;;;;7.47;5.00;;;;;;;6.31;66.91;99952.78;4959788;28;20174;-78
2022/12/13 04:47:04;;;;;;;8.63;4.88;;;;;;;6.28;66.94;99947.63;4977258;28;20062;-78
2022/12/13 04:49:33;;;;;;;7.63;4.95;;;;;;;6.31;66.90;99957.22;4959931;28;20078;-79
2022/12/13 04:52:03;;;;;;;7.55;4.60;;;;;;;6.31;66.91;99959.88;4976920;28;20046;-78
2022/12/13 04:54:31;;;;;;;8.73;4.80;;;;;;;6.30;66.91;99958.16;4977233;28;20105;-78
2022/12/13 04:57:07;;;;;;;7.50;4.60;;;;;;;6.30;66.97;99953.72;4977212;28;20050;-80
2022/12/13 04:59:37;;;;;;;7.03;4.53;;;;;;;6.28;66.82;99952.94;4976859;28;20047;-79
2022/12/13 05:02:07;;;;;;;8.75;4.97;;;;;;;6.29;66.84;99952.00;4976471;28;20078;-80
2022/12/13 05:04:36;;;;;;;7.50;4.78;;;;;;;6.28;66.99;99952.94;4976384;28;20050;-79
2022/12/13 05:07:05;;;;;;;7.47;4.68;;;;;;;6.28;66.71;99955.56;4975897;28;20573;-79
2022/12/13 05:09:33;;;;;;;8.20;4.57;;;;;;;6.29;67.03;99956.44;4976096;28;20563;-79
2022/12/13 05:12:01;;;;;;;9.13;5.18;;;;;;;6.27;66.85;99956.50;4976802;28;20055;-79
2022/12/13 05:14:32;;;;;;;7.82;4.68;;;;;;;6.27;66.88;99950.31;4976592;28;20051;-79
2022/12/13 05:17:00;;;;;;;7.63;4.70;;;;;;;6.27;67.00;99960.91;4976793;28;20043;-79
2022/12/13 05:19:31;;;;;;;7.53;4.57;;;;;;;6.26;66.90;99948.59;4977141;28;20069;-78
2022/12/13 05:22:00;;;;;;;8.13;4.50;;;;;;;6.25;66.68;99942.47;4980018;28;20042;-79
2022/12/13 05:24:30;;;;;;;8.23;4.90;;;;;;;6.25;66.80;99950.41;4980379;28;20383;-79
2022/12/13 05:26:59;;;;;;;6.80;4.35;;;;;;;6.26;66.74;99949.47;4979809;28;20462;-79
2022/12/13 05:29:28;;;;;;;7.97;5.13;;;;;;;6.25;66.64;99955.69;4980020;28;20502;-79
2022/12/13 05:31:57;;;;;;;8.05;4.80;;;;;;;6.24;66.83;99945.19;4979634;28;20077;-79
2022/12/13 05:34:26;;;;;;;7.28;4.60;;;;;;;6.23;66.78;99954.91;4979600;28;20047;-78
2022/12/13 05:36:54;;;;;;;7.75;5.18;;;;;;;6.23;66.78;99951.41;4979743;28;20053;-78
2022/12/13 05:39:22;;;;;;;8.93;5.28;;;;;;;6.23;66.65;99954.06;4979092;28;20490;-80
2022/12/13 05:41:58;;;;;;;7.53;5.05;;;;;;;6.23;66.69;99954.91;4979402;28;20049;-78
2022/12/13 05:44:30;;;;;;;8.75;4.90;;;;;;;6.22;66.79;99953.22;4979178;28;20141;-78
2022/12/13 05:47:00;;;;;;;8.63;5.00;;;;;;;6.21;66.62;99951.50;4978903;28;20475;-80
2022/12/13 05:49:30;;;;;;;8.52;5.40;;;;;;;6.21;66.72;99956.78;4979786;28;20398;-78
2022/12/13 05:51:59;;;;;;;8.45;5.13;;;;;;;6.21;66.71;99959.44;4961953;28;20053;-79
2022/12/13 05:54:27;;;;;;;7.70;4.72;;;;;;;6.21;66.57;99959.44;4979826;28;20449;-80
2022/12/13 05:56:55;;;;;;;8.88;5.45;;;;;;;6.20;66.55;99949.78;4977565;28;20093;-78
2022/12/13 05:59:23;;;;;;;7.57;4.75;;;;;;;6.20;66.47;99960.38;4978658;28;20482;-78
2022/12/13 06:01:51;;;;;;;9.00;5.25;;;;;;;6.20;66.28;99959.50;4979173;28;20047;-79
2022/12/13 06:04:21;;;;;;;8.05;5.25;;;;;;;6.20;66.41;99959.50;4979324;28;20066;-78
2022/12/13 06:06:51;;;;;;;7.97;4.97;;;;;;;6.20;66.55;99967.47;4979687;28;20070;-82
2022/12/13 06:09:20;;;;;;;9.88;5.40;;;;;;;6.20;66.44;99976.25;4977442;28;20046;-78
2022/12/13 06:11:49;;;;;;;8.00;4.88;;;;;;;6.19;66.33;99968.38;4978513;28;20053;-78
2022/12/13 06:14:17;;;;;;;8.30;4.97;;;;;;;6.18;66.36;99970.19;4977523;28;20513;-78
2022/12/13 06:16:51;;;;;;;8.25;5.30;;;;;;;6.19;66.37;99973.69;4978532;28;20057;-78
2022/12/13 06:19:21;;;;;;;8.23;5.00;;;;;;;6.17;66.51;99960.50;4983326;28;20054;-80
2022/12/13 06:21:49;;;;;;;8.55;5.30;;;;;;;6.18;66.48;99971.97;4998534;28;20043;-79
2022/12/13 06:24:19;;;;;;;8.73;5.32;;;;;;;6.17;66.35;99968.44;4997806;28;20540;-77
2022/12/13 06:26:48;;;;;;;7.57;4.78;;;;;;;6.18;66.26;99972.84;4997342;28;20048;-79
2022/12/13 06:29:18;;;;;;;8.00;4.70;;;;;;;6.18;66.40;99975.47;4997400;28;20046;-77
2022/12/13 06:31:57;;;;;;;9.40;5.20;;;;;;;6.17;66.33;99976.38;4996375;28;20134;-78
2022/12/13 06:34:33;;;;;;;8.20;5.20;;;;;;;6.14;66.28;99978.31;4980045;28;20509;-78
2022/12/13 06:37:05;;;;;;;9.60;5.55;;;;;;;6.13;66.28;99985.41;4993475;28;20429;-78
2022/12/13 06:39:34;;;;;;;10.60;5.57;;;;;;;6.12;66.38;99989.00;4977253;28;20049;-78
2022/12/13 06:42:05;;;;;;;8.80;5.35;;;;;;;6.11;66.43;99987.28;4977203;28;20066;-80
2022/12/13 06:44:34;;;;;;;9.02;5.28;;;;;;;6.11;66.47;99997.88;4977345;28;20039;-78
2022/12/13 06:47:02;;;;;;;8.52;5.20;;;;;;;6.11;66.18;99995.22;4977158;28;20046;-79
2022/12/13 06:49:42;;;;;;;8.40;5.07;;;;;;;6.11;66.42;100004.97;4980864;28;20038;-77
2022/12/13 06:52:14;;;;;;;8.73;5.38;;;;;;;6.11;66.36;99997.00;4983474;28;20049;-78
2022/12/13 06:54:43;;;;;;;8.48;5.13;;;;;;;6.11;66.40;100000.53;4987024;28;20062;-79
2022/12/13 06:57:12;;;;;;;8.65;5.25;;;;;;;6.13;66.64;100005.75;4985833;28;20094;-79
2022/12/13 06:59:42;;;;;;;8.15;5.45;;;;;;;6.11;66.45;100003.16;4986684;28;20046;-79
2022/12/13 07:02:13;;;;;;;8.07;5.27;;;;;;;6.12;66.47;100015.47;4991992;28;20057;-78
2022/12/13 07:04:53;;;;;;;8.15;4.95;;;;;;;6.11;66.28;100008.47;4990293;28;20047;-79
2022/12/13 07:07:23;;;;;;;8.65;5.00;;;;;;;6.12;66.42;100017.25;4987167;28;20050;-78
2022/12/13 07:09:54;;;;;;;8.52;5.10;;;;;;;6.12;66.53;100015.47;4988757;28;20062;-77
2022/12/13 07:12:23;;;;;;;9.23;5.28;;;;;;;6.12;66.48;100015.47;4976427;28;20406;-79
2022/12/13 07:14:51;;;;;;;8.60;5.18;;;;;;;6.12;66.54;100018.13;4976687;28;20493;-78
2022/12/13 07:17:19;;;;;;;8.73;5.13;;;;;;;6.12;66.46;100017.25;4993901;28;20057;-78
2022/12/13 07:20:06;;;;;;;8.15;5.03;;;;;;;6.13;66.44;100017.19;4996737;28;20034;-78
2022/12/13 07:22:37;;;;;;;7.82;5.03;;;;;;;6.13;66.47;100017.19;4997090;28;20042;-79
2022/12/13 07:25:14;;;;;;;10.95;6.00;;;;;;;6.13;66.59;100019.84;4995243;28;20050;-78
2022/12/13 07:27:58;;;;;;;9.30;5.03;;;;;;;6.14;66.65;100021.56;4996322;28;20089;-80
2022/12/13 07:30:29;;;;;;;;;;;;;;;6.13;66.46;100032.22;4996346;28;20046;-78
2022/12/13 07:32:58;;;;;;;9.70;5.18;;;;;;;6.14;66.44;100032.16;4978584;28;20009;-79
2022/12/13 07:35:28;;;;;;;9.93;5.53;;;;;;;6.14;66.79;100028.63;4996174;28;20137;-79
2022/12/13 07:37:56;;;;;;;10.93;5.35;;;;;;;6.15;66.60;100030.34;4989065;28;20441;-79
2022/12/13 07:40:28;;;;;;;9.60;5.25;;;;;;;6.14;66.75;100029.50;4996016;28;20604;-79
2022/12/13 07:42:56;;;;;;;9.82;5.60;;;;;;;6.14;66.71;100033.94;4977355;28;20142;-80
2022/12/13 07:45:25;;;;;;;10.25;5.53;;;;;;;6.12;66.73;100031.38;4967788;28;20077;-79
2022/12/13 07:47:53;;;;;;;8.30;4.90;;;;;;;6.14;66.66;100037.44;4995098;28;20492;-79
2022/12/13 07:50:23;;;;;;;8.60;5.40;;;;;;;6.17;66.70;100039.09;4995469;28;20077;-77
2022/12/13 07:52:58;;;;;;;8.48;5.22;;;;;;;6.17;66.68;100039.09;4977985;28;20042;-78
2022/12/13 07:55:55;;;;;;;10.25;5.68;;;;;;;6.17;66.86;100039.09;4994930;28;20070;-80
2022/12/13 07:58:59;;;;;;;9.60;5.07;;;;;;;6.17;67.35;100033.78;4982926;28;20058;-81
2022/12/13 08:01:39;;;;;;;10.73;4.72;;;;;;;6.17;67.02;100037.28;4975760;28;20074;-79
2022/12/13 08:04:07;;;;;;;8.60;5.13;;;;;;;6.25;67.22;100037.81;4991719;28;20072;-82
2022/12/13 08:06:37;;;;;;;10.82;5.32;;;;;;;6.26;67.35;100044.81;4992244;28;20078;-81
2022/12/13 08:09:06;;;;;;;9.40;5.20;;;;;;;6.28;67.51;100043.00;4975471;28;20055;-78
2022/12/13 08:11:34;;;;;;;11.38;5.35;;;;;;;6.29;67.50;100046.50;4974994;28;20043;-80
2022/12/13 08:14:10;;;;;;;9.68;5.95;;;;;;;6.28;67.61;100048.28;4957608;28;20050;-79
2022/12/13 08:16:38;;;;;;;9.32;4.90;;;;;;;6.29;67.51;100054.44;4975302;28;20051;-78
2022/12/13 08:19:07;;;;;;;8.25;5.10;;;;;;;6.29;67.47;100057.09;4974980;28;20054;-79
2022/12/13 08:21:36;;;;;;;12.43;5.57;;;;;;;6.30;67.66;100058.81;4974952;28;20528;-80
2022/12/13 08:24:25;;;;;;;9.32;5.28;;;;;;;6.29;67.37;100057.94;4975276;28;20049;-80
2022/12/13 08:26:53;;;;;;;10.20;5.35;;;;;;;6.29;67.69;100055.31;4974984;28;20046;-79
2022/12/13 08:29:21;;;;;;;9.50;5.28;;;;;;;6.31;67.37;100058.72;4974705;28;20121;-79
2022/12/13 08:32:02;;;;;;;8.93;5.35;;;;;;;6.32;67.47;100057.81;4975054;28;20422;-78
2022/12/13 08:34:31;;;;;;;9.57;5.20;;;;;;;6.35;67.45;100053.28;4974915;28;20055;-79
2022/12/13 08:37:00;;;;;;;9.20;5.40;;;;;;;6.34;67.61;100052.44;4975287;28;20098;-79
2022/12/13 08:39:33;;;;;;;9.90;5.05;;;;;;;6.34;67.42;100056.88;4974905;28;20093;-79
2022/12/13 08:42:04;;;;;;;8.13;4.82;;;;;;;6.36;67.48;100060.28;4958179;28;20132;-79
2022/12/13 08:44:46;;;;;;;7.95;5.07;;;;;;;6.37;67.70;100064.66;4957448;28;20149;-79
2022/12/13 08:47:15;;;;;;;10.18;5.13;;;;;;;6.37;67.74;100067.31;4975408;28;20105;-78
2022/12/13 08:49:57;;;;;;;11.60;5.00;;;;;;;6.39;67.54;100052.22;4974533;28;20050;-79
2022/12/13 08:52:30;;;;;;;9.32;5.47;;;;;;;6.40;67.53;100061.91;4968416;28;20039;-78
2022/12/13 08:55:09;;;;;;;9.02;4.90;;;;;;;6.41;67.49;100058.31;4957071;28;20105;-80
2022/12/13 08:57:37;;;;;;;9.40;5.07;;;;;;;6.41;67.46;100053.00;4974527;28;20123;-78
2022/12/13 09:00:08;;;;;;;7.57;4.60;;;;;;;6.43;67.57;100056.44;4974888;28;20094;-79
2022/12/13 09:02:39;;;;;;;;;;;;;;;6.44;67.71;100058.16;4975776;28;20130;-79
2022/12/13 09:05:09;;;;;;;11.50;5.00;;;;;;;6.46;67.57;100051.84;4974931;28;19949;-78
2022/12/13 09:07:38;;;;;;;9.18;5.30;;;;;;;6.49;67.67;100064.13;4974643;28;20054;-79
2022/12/13 09:10:10;;;;;;;9.85;4.95;;;;;;;6.51;67.57;100059.59;4974708;28;20101;-80
2022/12/13 09:12:55;;;;;;;8.65;4.47;;;;;;;6.53;67.46;100055.94;4974827;28;20058;-79
2022/12/13 09:15:30;;;;;;;8.52;4.80;;;;;;;6.56;67.67;100052.28;4967975;28;20498;-80
2022/12/13 09:18:02;;;;;;;9.25;5.13;;;;;;;6.59;67.44;100057.47;4974974;28;20109;-80
2022/12/13 09:20:36;;;;;;;8.70;5.03;;;;;;;6.62;67.46;100045.84;4974586;28;20130;-80
2022/12/13 09:23:09;;;;;;;9.18;5.18;;;;;;;6.64;67.28;100042.19;4974791;28;20047;-80
2022/12/13 09:25:55;;;;;;;10.73;5.28;;;;;;;6.67;67.08;100039.41;4974478;28;20043;-80
2022/12/13 09:28:34;;;;;;;8.30;5.00;;;;;;;6.70;67.29;100044.56;4968238;28;20046;-80
2022/12/13 09:31:07;;;;;;;8.82;4.95;;;;;;;6.73;67.44;100049.69;4974046;28;20490;-81
2022/12/13 09:33:36;;;;;;;8.32;5.18;;;;;;;6.78;67.33;100041.53;4973906;28;20079;-81
2022/12/13 09:36:11;;;;;;;7.75;4.60;;;;;;;6.81;67.34;100046.69;4974220;28;20504;-81
2022/12/13 09:38:40;;;;;;;8.85;4.60;;;;;;;6.80;67.38;100024.63;4974578;28;20094;-82
2022/12/13 09:41:18;;;;;;;8.68;4.72;;;;;;;6.87;67.22;100031.34;4974282;28;20482;-82
2022/12/13 09:43:52;;;;;;;8.18;4.80;;;;;;;6.94;67.18;100031.03;4974866;28;20126;-81
2022/12/13 09:46:32;;;;;;;9.27;4.60;;;;;;;6.97;67.35;100025.59;4974288;28;20082;-82
2022/12/13 09:49:07;;;;;;;8.40;4.75;;;;;;;7.02;67.43;100028.88;4974259;28;20051;-81
2022/12/13 09:51:41;;;;;;;8.57;5.30;;;;;;;7.08;67.47;100028.59;4974222;28;20478;-82
2022/12/13 09:54:19;;;;;;;8.20;4.82;;;;;;;7.14;67.45;100031.81;4974537;28;20497;-81
2022/12/13 09:56:50;;;;;;;7.45;4.55;;;;;;;7.24;67.39;100034.84;4974377;28;20051;-82
2022/12/13 09:59:28;;;;;;;10.23;4.45;;;;;;;7.34;67.24;100025.50;4974279;28;20042;-81
2022/12/13 10:02:02;;;;;;;8.88;4.38;;;;;;;7.45;66.97;100033.78;4957277;28;20059;-80
2022/12/13 10:04:30;;;;;;;9.55;4.97;;;;;;;7.59;66.62;100040.16;4973975;28;20054;-82
2022/12/13 10:06:58;;;;;;;7.93;4.55;;;;;;;7.72;66.33;100025.31;4975857;28;20401;-82
2022/12/13 10:09:27;;;;;;;9.48;4.78;;;;;;;7.86;65.82;100024.59;4977647;28;20042;-80
2022/12/13 10:11:56;;;;;;;8.07;4.80;;;;;;;8.00;65.15;100024.72;4977696;28;20046;-81
2022/12/13 10:14:30;;;;;;;6.70;4.47;;;;;;;8.16;64.72;100016.81;4977757;28;20077;-81
2022/12/13 10:17:03;;;;;;;8.13;4.47;;;;;;;8.21;64.31;100018.28;4977890;28;20058;-83
2022/12/13 10:19:39;;;;;;;7.53;4.43;;;;;;;8.37;63.81;100020.97;4978245;28;20192;-81
2022/12/13 10:22:12;;;;;;;8.52;4.35;;;;;;;8.50;63.46;100013.22;4977156;28;20073;-81
2022/12/13 10:24:52;;;;;;;7.18;4.47;;;;;;;8.54;63.36;100014.75;4977483;28;20047;-81
2022/12/13 10:27:28;;;;;;;8.93;4.72;;;;;;;8.53;63.38;100008.56;4977127;28;20057;-80
2022/12/13 10:30:05;;;;;;;7.40;4.25;;;;;;;8.54;63.29;100004.97;4977195;28;20102;-81
2022/12/13 10:32:42;;;;;;;7.35;4.30;;;;;;;8.58;63.31;100001.19;4976569;28;20486;-80
2022/12/13 10:35:23;;;;;;;7.85;4.60;;;;;;;8.58;63.31;100001.19;4977611;28;20051;-80
2022/12/13 10:37:51;;;;;;;6.40;3.90;;;;;;;8.53;63.50;100000.59;4977598;28;20054;-80
2022/12/13 10:40:32;;;;;;;8.43;4.55;;;;;;;8.48;64.11;99999.97;4976802;28;20074;-79
2022/12/13 10:43:12;;;;;;;7.05;3.80;;;;;;;8.47;64.55;99994.75;4977151;28;20133;-79
2022/12/13 10:45:42;;;;;;;7.97;4.47;;;;;;;8.48;64.73;99994.66;4976949;28;20081;-79
2022/12/13 10:48:20;;;;;;;6.57;4.20;;;;;;;8.53;64.80;99992.63;4976505;28;20051;-80
2022/12/13 10:50:59;;;;;;;8.77;4.38;;;;;;;8.59;64.75;99997.59;4976844;28;20038;-80
2022/12/13 10:53:31;;;;;;;6.82;4.38;;;;;;;8.65;64.65;99987.56;4976720;28;20458;-81
2022/12/13 10:56:01;;;;;;;6.50;4.00;;;;;;;8.67;64.54;99990.97;4977268;28;20050;-81
2022/12/13 10:58:40;;;;;;;7.32;4.30;;;;;;;8.64;64.70;99980.53;4976860;28;20446;-81
2022/12/13 11:01:11;;;;;;;7.18;4.15;;;;;;;8.57;64.88;99980.84;4976596;28;20482;-81
2022/12/13 11:03:40;;;;;;;6.78;4.05;;;;;;;8.55;65.20;99968.59;4976882;28;20458;-81
2022/12/13 11:06:14;;;;;;;7.35;4.38;;;;;;;8.56;65.26;99978.28;4976758;28;20498;-81
2022/12/13 11:08:42;;;;;;;7.55;3.88;;;;;;;8.56;65.55;99976.47;4976655;28;20051;-81
2022/12/13 11:11:12;;;;;;;9.10;4.28;;;;;;;8.59;65.58;99972.81;4976739;28;20078;-80
2022/12/13 11:13:46;;;;;;;7.75;4.53;;;;;;;8.60;65.80;99972.72;4977966;28;20050;-79
2022/12/13 11:16:23;;;;;;;7.53;4.20;;;;;;;8.64;65.71;99969.88;4976567;28;20379;-81
2022/12/13 11:18:55;;;;;;;7.55;4.22;;;;;;;8.66;65.86;99971.50;4976055;28;20125;-81
2022/12/13 11:21:26;;;;;;;7.07;4.10;;;;;;;8.69;66.01;99967.84;4976165;28;20054;-81
2022/12/13 11:23:56;;;;;;;7.03;3.95;;;;;;;8.69;66.07;99968.69;4975958;28;20494;-81
2022/12/13 11:26:31;;;;;;;7.32;4.07;;;;;;;8.74;66.02;99963.09;4975967;28;20134;-81
2022/12/13 11:29:25;;;;;;;6.30;3.85;;;;;;;8.76;66.42;99958.53;4975958;28;20046;-81
2022/12/13 11:32:03;;;;;;;8.27;3.90;;;;;;;8.80;66.43;99958.28;4975853;28;20450;-81
2022/12/13 11:34:40;;;;;;;7.03;4.22;;;;;;;8.85;66.37;99950.03;4976891;28;20058;-81
2022/12/13 11:37:21;;;;;;;7.82;4.40;;;;;;;8.89;66.27;99952.44;4975907;28;20051;-81
2022/12/13 11:39:54;;;;;;;6.53;3.70;;;;;;;8.94;66.37;99949.50;4975682;28;20053;-81
2022/12/13 11:42:35;;;;;;;6.38;4.13;;;;;;;9.02;65.98;99946.41;4976201;28;20038;-81
2022/12/13 11:45:12;;;;;;;5.95;3.63;;;;;;;9.06;66.02;99948.78;4975648;28;20071;-81
2022/12/13 11:47:59;;;;;;;7.65;4.15;;;;;;;9.12;65.92;99947.56;4976010;28;20446;-81
2022/12/13 11:50:32;;;;;;;6.00;3.65;;;;;;;9.17;65.95;99949.03;4975681;28;20042;-81
2022/12/13 11:53:19;;;;;;;8.00;4.53;;;;;;;9.22;65.92;99947.88;4975669;28;20054;-80
2022/12/13 11:55:52;;;;;;;7.28;3.97;;;;;;;9.28;65.94;99944.88;4975155;28;20113;-79
2022/12/13 11:58:25;;;;;;;6.28;4.15;;;;;;;9.29;65.61;99933.28;4975474;28;20061;-79
2022/12/13 12:01:20;;;;;;;6.05;3.67;;;;;;;9.36;65.81;99943.47;4975679;28;20113;-80
2022/12/13 12:03:52;;;;;;;7.18;4.22;;;;;;;9.39;65.75;99945.09;4975981;28;20519;-80
2022/12/13 12:06:25;;;;;;;7.32;3.60;;;;;;;9.44;65.81;99940.31;4975744;28;20139;-79
2022/12/13 12:08:56;;;;;;;;;;;;;;;9.47;65.97;99948.16;4976892;28;20134;-79
2022/12/13 12:11:31;;;;;;;6.57;3.70;;;;;;;9.50;65.78;99944.44;4976603;28;19926;-79
2022/12/13 12:14:05;;;;;;;5.72;3.70;;;;;;;9.54;66.01;99949.47;4959701;28;20074;-80